Time;durP1;ratioP1;P1;durP2;ratioP2;P2;SDS_P1;SDS_P2;PMS_P1;PMS_P2;Temp;Humidity;BMP_temperature;BMP_pressure;BME280_temperature;BME280_humidity;BME280_pressure;Samples;Min_cycle;Max_cycle;Signal;HPM_P1;HPM_P2
2023/08/31 00:02:07;;;;;;;7.18;3.67;;;;;;;15.05;100.00;99723.25;5191793;28;21002;-76
2023/08/31 00:04:37;;;;;;;6.15;3.63;;;;;;;15.09;100.00;99722.13;5185367;28;20036;-74
2023/08/31 00:07:07;;;;;;;4.68;2.95;;;;;;;15.07;100.00;99724.00;5187414;28;20041;-76
2023/08/31 00:09:38;;;;;;;6.88;3.92;;;;;;;15.08;100.00;99727.47;5188068;28;20108;-74
2023/08/31 00:12:09;;;;;;;6.55;3.67;;;;;;;15.11;100.00;99716.72;5190131;28;20537;-76
2023/08/31 00:14:39;;;;;;;7.80;3.03;;;;;;;15.21;100.00;99713.38;5185774;28;20026;-74
2023/08/31 00:17:09;;;;;;;5.88;3.28;;;;;;;15.10;100.00;99721.16;5190411;28;20116;-73
2023/08/31 00:19:40;;;;;;;5.78;3.58;;;;;;;15.04;100.00;99718.94;5188907;28;20021;-77
2023/08/31 00:22:10;;;;;;;6.25;3.50;;;;;;;15.02;100.00;99728.72;5185292;28;20151;-76
2023/08/31 00:24:40;;;;;;;5.57;3.42;;;;;;;15.09;100.00;99719.47;5189735;28;20034;-76
2023/08/31 00:27:12;;;;;;;5.93;3.75;;;;;;;15.13;100.00;99726.22;5188347;28;20041;-74
2023/08/31 00:29:44;;;;;;;8.43;3.65;;;;;;;15.05;100.00;99727.69;5170152;28;20087;-77
2023/08/31 00:32:15;;;;;;;5.30;3.40;;;;;;;14.94;100.00;99736.28;5175824;28;20046;-77
2023/08/31 00:34:45;;;;;;;9.70;4.00;;;;;;;14.85;100.00;99736.06;5181418;28;20140;-77
2023/08/31 00:37:16;;;;;;;6.15;3.55;;;;;;;14.94;100.00;99731.03;5188239;28;20093;-76
2023/08/31 00:39:47;;;;;;;5.65;3.35;;;;;;;14.99;100.00;99739.44;5182922;28;20509;-77
2023/08/31 00:42:18;;;;;;;9.02;3.55;;;;;;;14.98;100.00;99745.66;5185991;28;20030;-76
2023/08/31 00:44:48;;;;;;;5.82;4.15;;;;;;;14.93;100.00;99737.25;5186179;28;20026;-74
2023/08/31 00:47:19;;;;;;;7.30;4.00;;;;;;;15.09;100.00;99748.44;5190001;28;20049;-77
2023/08/31 00:49:50;;;;;;;9.88;3.65;;;;;;;14.97;100.00;99741.34;5186976;28;20383;-74
2023/08/31 00:52:21;;;;;;;5.22;3.72;;;;;;;14.85;100.00;99744.78;5190392;28;20041;-77
2023/08/31 00:54:52;;;;;;;8.32;4.20;;;;;;;15.03;100.00;99745.38;5194073;28;20511;-76
2023/08/31 00:57:26;;;;;;;8.27;3.83;;;;;;;14.86;100.00;99741.19;5190937;28;20213;-75
2023/08/31 00:59:56;;;;;;;6.35;4.05;;;;;;;14.83;100.00;99737.97;5189698;28;20029;-76
2023/08/31 01:02:31;;;;;;;7.70;3.90;;;;;;;14.81;100.00;99742.47;5189581;28;20383;-76
2023/08/31 01:05:29;;;;;;;8.65;3.67;;;;;;;15.00;100.00;99746.41;5188827;28;20507;-74
2023/08/31 01:08:33;;;;;;;9.18;4.10;;;;;;;14.99;100.00;99744.72;5194245;28;20033;-77
2023/08/31 01:11:42;;;;;;;8.57;3.95;;;;;;;14.83;100.00;99741.41;5193576;28;20033;-76
2023/08/31 01:14:18;;;;;;;8.50;4.40;;;;;;;14.82;100.00;99752.06;5196806;28;20045;-76
2023/08/31 01:16:51;;;;;;;6.18;3.47;;;;;;;14.75;100.00;99749.94;5263892;22;20046;-72
2023/08/31 01:19:44;;;;;;;7.57;4.05;;;;;;;14.67;100.00;99755.69;5246001;28;20028;-72
2023/08/31 01:22:31;;;;;;;6.00;3.90;;;;;;;14.66;100.00;99763.66;5253224;28;20024;-72
2023/08/31 01:25:04;;;;;;;6.88;4.05;;;;;;;14.50;100.00;99758.56;5250242;28;20028;-72
2023/08/31 01:27:36;;;;;;;8.02;3.67;;;;;;;14.43;100.00;99761.69;5237308;28;20081;-72
2023/08/31 01:30:06;;;;;;;6.85;3.92;;;;;;;14.48;100.00;99762.22;5233336;28;21174;-72
2023/08/31 01:32:37;;;;;;;8.00;3.90;;;;;;;14.43;100.00;99759.06;5238915;28;20558;-73
2023/08/31 01:35:07;;;;;;;10.18;4.03;;;;;;;14.42;100.00;99760.00;5236192;28;20436;-72
2023/08/31 01:37:45;;;;;;;6.75;4.07;;;;;;;14.37;100.00;99762.06;5240050;28;20024;-72
2023/08/31 01:40:23;;;;;;;7.78;4.20;;;;;;;14.32;100.00;99765.00;5234634;28;20618;-72
2023/08/31 01:42:54;;;;;;;9.40;4.15;;;;;;;14.33;100.00;99771.09;5233768;28;20240;-72
2023/08/31 01:45:25;;;;;;;6.63;3.70;;;;;;;14.20;100.00;99770.16;5234337;28;20117;-72
2023/08/31 01:47:57;;;;;;;7.53;4.25;;;;;;;14.25;100.00;99776.00;5231012;28;20479;-72
2023/08/31 01:50:27;;;;;;;8.07;4.32;;;;;;;14.32;100.00;99782.53;5232563;28;20042;-72
2023/08/31 01:52:58;;;;;;;6.75;4.25;;;;;;;14.24;100.00;99784.81;5231834;28;20387;-72
2023/08/31 01:55:28;;;;;;;11.18;4.32;;;;;;;14.21;100.00;99785.84;5236196;28;20021;-72
2023/08/31 01:57:58;;;;;;;10.40;4.40;;;;;;;14.23;100.00;99778.72;5234600;28;20367;-73
2023/08/31 02:00:29;;;;;;;8.30;4.43;;;;;;;14.24;100.00;99769.88;5234025;28;20523;-73
2023/08/31 02:02:59;;;;;;;7.53;4.55;;;;;;;14.14;100.00;99773.16;5234116;28;20481;-72
2023/08/31 02:05:30;;;;;;;9.60;4.72;;;;;;;14.17;100.00;99765.97;5235246;28;20025;-73
2023/08/31 02:08:00;;;;;;;10.13;4.40;;;;;;;14.15;100.00;99773.06;5235292;28;20024;-72
2023/08/31 02:10:30;;;;;;;8.10;5.05;;;;;;;14.08;100.00;99768.28;5235219;28;20024;-73
2023/08/31 02:13:01;;;;;;;7.22;4.43;;;;;;;14.04;100.00;99772.03;5235501;28;20042;-73
2023/08/31 02:15:31;;;;;;;10.73;5.30;;;;;;;14.02;100.00;99771.28;5229654;28;20029;-73
2023/08/31 02:18:01;;;;;;;7.70;4.65;;;;;;;13.92;100.00;99778.06;5234424;28;20501;-72
2023/08/31 02:20:31;;;;;;;6.55;4.63;;;;;;;13.96;100.00;99779.56;5234522;28;20032;-73
2023/08/31 02:23:02;;;;;;;9.02;4.47;;;;;;;13.95;100.00;99789.19;5235665;28;20025;-73
2023/08/31 02:25:32;;;;;;;8.63;4.75;;;;;;;13.89;100.00;99784.34;5232084;28;20117;-73
2023/08/31 02:28:03;;;;;;;6.78;4.38;;;;;;;13.86;100.00;99784.53;5232904;28;20028;-72
2023/08/31 02:30:33;;;;;;;8.63;4.80;;;;;;;13.97;100.00;99799.63;5234685;28;20021;-72
2023/08/31 02:33:04;;;;;;;8.90;4.28;;;;;;;13.87;100.00;99794.09;5227968;28;20499;-73
2023/08/31 02:35:34;;;;;;;11.68;4.75;;;;;;;13.91;100.00;99800.03;5234216;28;20094;-72
2023/08/31 02:38:04;;;;;;;10.60;4.75;;;;;;;13.81;100.00;99801.50;5232948;28;20117;-73
2023/08/31 02:40:34;;;;;;;14.32;4.82;;;;;;;13.85;100.00;99798.59;5233134;28;20021;-73
2023/08/31 02:43:05;;;;;;;8.55;4.95;;;;;;;13.68;100.00;99805.81;5236715;28;20023;-72
2023/08/31 02:45:35;;;;;;;9.77;5.30;;;;;;;13.68;100.00;99806.66;5233148;28;20029;-72
2023/08/31 02:48:09;;;;;;;7.93;4.63;;;;;;;13.63;100.00;99805.25;5233138;28;20111;-73
2023/08/31 02:50:40;;;;;;;7.53;4.82;;;;;;;13.61;100.00;99809.75;5233709;28;20723;-71
2023/08/31 02:53:10;;;;;;;7.60;4.80;;;;;;;13.60;100.00;99808.06;5229970;28;20033;-72
2023/08/31 02:55:42;;;;;;;7.53;5.18;;;;;;;13.59;100.00;99803.75;5234433;28;20017;-72
2023/08/31 02:58:12;;;;;;;10.32;5.25;;;;;;;13.67;100.00;99804.97;5232604;28;20033;-72
2023/08/31 03:00:45;;;;;;;7.40;4.95;;;;;;;13.61;100.00;99809.75;5232931;28;20051;-72
2023/08/31 03:03:16;;;;;;;7.90;4.90;;;;;;;13.54;100.00;99808.44;5229311;28;20608;-71
2023/08/31 03:05:46;;;;;;;8.80;5.18;;;;;;;13.60;100.00;99814.13;5232673;28;20040;-73
2023/08/31 03:08:16;;;;;;;7.53;5.03;;;;;;;13.58;100.00;99812.56;5232436;28;20029;-72
2023/08/31 03:10:47;;;;;;;10.10;5.60;;;;;;;13.63;100.00;99818.38;5234690;28;20024;-72
2023/08/31 03:13:18;;;;;;;11.57;5.65;;;;;;;13.54;100.00;99811.06;5227955;28;20024;-72
2023/08/31 03:15:48;;;;;;;11.23;5.43;;;;;;;13.63;100.00;99807.88;5234122;28;20195;-72
2023/08/31 03:18:19;;;;;;;6.95;4.53;;;;;;;13.70;100.00;99804.78;5234632;28;20599;-73
2023/08/31 03:20:49;;;;;;;9.30;5.38;;;;;;;13.60;100.00;99813.31;5234187;28;20088;-72
2023/08/31 03:23:19;;;;;;;10.80;5.40;;;;;;;13.54;100.00;99804.00;5229384;28;20119;-73
2023/08/31 03:25:50;;;;;;;10.50;5.80;;;;;;;13.57;100.00;99813.50;5231039;28;20024;-72
2023/08/31 03:28:21;;;;;;;9.30;5.78;;;;;;;13.48;100.00;99820.16;5230994;28;20094;-73
2023/08/31 03:30:55;;;;;;;11.23;6.00;;;;;;;13.51;100.00;99811.22;5230654;28;20414;-72
2023/08/31 03:33:27;;;;;;;9.20;5.38;;;;;;;13.54;100.00;99818.94;5229121;28;20371;-72
2023/08/31 03:36:02;;;;;;;10.55;5.72;;;;;;;13.56;100.00;99817.91;5229315;28;20028;-72
2023/08/31 03:38:37;;;;;;;10.90;5.95;;;;;;;13.55;100.00;99826.72;5230036;28;20545;-73
2023/08/31 03:41:07;;;;;;;12.73;5.80;;;;;;;13.55;100.00;99815.38;5232557;28;20356;-73
2023/08/31 03:43:37;;;;;;;9.68;5.35;;;;;;;13.60;100.00;99819.38;5231116;28;20040;-73
2023/08/31 03:46:08;;;;;;;9.52;6.13;;;;;;;13.65;100.00;99825.25;5229649;28;20046;-73
2023/08/31 03:48:38;;;;;;;11.85;5.72;;;;;;;13.49;100.00;99829.72;5231583;28;20020;-73
2023/08/31 03:51:08;;;;;;;12.82;5.75;;;;;;;13.37;100.00;99842.72;5233745;28;20031;-73
2023/08/31 03:53:39;;;;;;;10.00;5.90;;;;;;;13.51;100.00;99829.59;5232102;28;20459;-73
2023/08/31 03:56:09;;;;;;;12.32;5.68;;;;;;;13.36;100.00;99831.34;5231551;28;20450;-73
2023/08/31 03:58:39;;;;;;;10.75;5.70;;;;;;;13.37;100.00;99829.59;5229420;28;20032;-73
2023/08/31 04:01:10;;;;;;;10.85;6.30;;;;;;;13.32;100.00;99831.63;5228836;28;20496;-73
2023/08/31 04:03:44;;;;;;;10.68;6.05;;;;;;;13.25;100.00;99840.78;5230538;28;20024;-71
2023/08/31 04:06:14;;;;;;;9.75;5.90;;;;;;;13.35;100.00;99837.53;5229515;28;20029;-72
2023/08/31 04:08:44;;;;;;;11.70;6.15;;;;;;;13.28;100.00;99832.75;5231910;28;20462;-73
2023/08/31 04:11:14;;;;;;;12.73;6.57;;;;;;;13.34;100.00;99837.63;5230180;28;20127;-73
2023/08/31 04:13:45;;;;;;;13.45;6.93;;;;;;;13.30;100.00;99836.13;5233154;28;20482;-73
2023/08/31 04:16:15;;;;;;;9.18;6.13;;;;;;;13.32;100.00;99839.50;5230662;28;20025;-73
2023/08/31 04:18:51;;;;;;;11.27;5.72;;;;;;;13.38;100.00;99833.91;5227719;28;20017;-72
2023/08/31 04:21:21;;;;;;;14.65;7.22;;;;;;;13.28;100.00;99838.00;5231178;28;20227;-72
2023/08/31 04:23:51;;;;;;;14.10;7.35;;;;;;;13.32;100.00;99847.38;5231482;28;20120;-72
2023/08/31 04:26:23;;;;;;;12.07;5.75;;;;;;;13.38;100.00;99847.03;5226429;28;20031;-72
2023/08/31 04:28:54;;;;;;;14.10;6.90;;;;;;;13.30;100.00;99839.59;5231861;28;20040;-73
2023/08/31 04:31:24;;;;;;;12.70;6.13;;;;;;;13.33;100.00;99846.44;5228880;28;20097;-72
2023/08/31 04:33:54;;;;;;;11.73;5.80;;;;;;;13.40;100.00;99850.41;5230236;28;20103;-72
2023/08/31 04:36:27;;;;;;;9.80;5.95;;;;;;;13.47;100.00;99854.34;5230315;28;20024;-72
2023/08/31 04:38:58;;;;;;;13.27;6.03;;;;;;;13.39;100.00;99857.41;5227822;28;20094;-72
2023/08/31 04:41:28;;;;;;;9.80;6.32;;;;;;;13.38;100.00;99862.78;5229013;28;20449;-73
2023/08/31 04:43:58;;;;;;;10.00;5.90;;;;;;;13.41;100.00;99865.22;5227709;28;20397;-72
2023/08/31 04:46:29;;;;;;;13.02;6.55;;;;;;;13.44;100.00;99865.03;5227400;28;20020;-73
2023/08/31 04:48:59;;;;;;;11.93;6.05;;;;;;;13.44;100.00;99865.03;5223648;28;20040;-73
2023/08/31 04:51:35;;;;;;;8.40;5.80;;;;;;;13.36;100.00;99867.25;5231383;28;20034;-73
2023/08/31 04:54:05;;;;;;;13.18;6.65;;;;;;;13.34;100.00;99869.13;5228823;28;20060;-72
2023/08/31 04:56:36;;;;;;;13.40;6.18;;;;;;;13.37;100.00;99874.22;5226885;28;20075;-72
2023/08/31 04:59:06;;;;;;;10.38;5.40;;;;;;;13.38;100.00;99874.09;5226809;28;20033;-72
2023/08/31 05:01:36;;;;;;;10.25;5.10;;;;;;;13.37;100.00;99880.28;5230067;28;20349;-73
2023/08/31 05:04:06;;;;;;;16.33;5.70;;;;;;;13.33;100.00;99885.78;5229052;28;20608;-73
2023/08/31 05:06:37;;;;;;;13.35;5.97;;;;;;;13.19;100.00;99883.97;5229279;28;20028;-72
2023/08/31 05:09:08;;;;;;;8.32;5.25;;;;;;;13.35;100.00;99895.28;5230149;28;20506;-71
2023/08/31 05:11:38;;;;;;;10.52;5.55;;;;;;;13.20;100.00;99888.28;5227776;28;20039;-73
2023/08/31 05:14:08;;;;;;;9.50;5.63;;;;;;;13.34;100.00;99892.72;5232697;28;20028;-73
2023/08/31 05:16:38;;;;;;;12.95;6.13;;;;;;;13.47;100.00;99891.09;5231105;28;20020;-72
2023/08/31 05:19:09;;;;;;;11.82;5.70;;;;;;;13.40;100.00;99895.03;5225616;28;20020;-73
2023/08/31 05:21:39;;;;;;;10.63;6.55;;;;;;;13.21;100.00;99897.03;5230098;28;20028;-73
2023/08/31 05:24:09;;;;;;;11.70;5.60;;;;;;;13.39;100.00;99885.47;5226017;28;20037;-73
2023/08/31 05:26:40;;;;;;;8.55;5.07;;;;;;;13.80;100.00;99892.59;5228852;28;20027;-72
2023/08/31 05:29:10;;;;;;;7.82;5.53;;;;;;;14.33;100.00;99886.75;5226128;28;20035;-73
2023/08/31 05:31:40;;;;;;;7.68;4.65;;;;;;;14.44;100.00;99897.44;5230474;28;20024;-72
2023/08/31 05:34:11;;;;;;;10.60;4.97;;;;;;;14.28;100.00;99902.78;5226230;28;20024;-73
2023/08/31 05:36:41;;;;;;;9.85;5.53;;;;;;;14.31;100.00;99912.28;5230591;28;20032;-72
2023/08/31 05:39:11;;;;;;;12.73;4.90;;;;;;;14.54;100.00;99903.81;5228452;28;20299;-72
2023/08/31 05:41:42;;;;;;;9.07;4.68;;;;;;;14.80;100.00;99900.41;5230121;28;20592;-72
2023/08/31 05:44:12;;;;;;;8.60;4.95;;;;;;;14.88;100.00;99914.75;5231617;28;20165;-73
2023/08/31 05:46:42;;;;;;;13.27;5.32;;;;;;;15.01;100.00;99899.91;5229709;28;20070;-72
2023/08/31 05:49:13;;;;;;;11.77;5.97;;;;;;;14.88;100.00;99907.69;5227435;28;20474;-73
2023/08/31 05:51:43;;;;;;;12.45;5.78;;;;;;;15.24;100.00;99907.13;5227370;28;20024;-72
2023/08/31 05:54:13;;;;;;;12.27;6.32;;;;;;;15.25;100.00;99908.81;5231088;28;20477;-73
2023/08/31 05:56:44;;;;;;;14.18;6.53;;;;;;;14.96;100.00;99910.69;5231432;28;20029;-72
2023/08/31 05:59:15;;;;;;;9.50;5.50;;;;;;;15.20;100.00;99917.00;5230465;28;20087;-73
2023/08/31 06:01:45;;;;;;;11.82;6.15;;;;;;;15.15;100.00;99918.28;5229685;28;20017;-72
2023/08/31 06:04:15;;;;;;;12.18;6.35;;;;;;;15.14;100.00;99922.69;5227411;28;20109;-72
2023/08/31 06:06:46;;;;;;;12.18;6.18;;;;;;;14.68;100.00;99930.09;5226406;28;20033;-72
2023/08/31 06:09:17;;;;;;;8.90;6.20;;;;;;;14.75;100.00;99927.00;5227222;28;20039;-73
2023/08/31 06:11:47;;;;;;;12.23;6.05;;;;;;;14.90;100.00;99931.28;5226587;28;20025;-72
2023/08/31 06:14:17;;;;;;;13.43;6.95;;;;;;;14.92;100.00;99926.78;5226493;28;20056;-73
2023/08/31 06:16:47;;;;;;;11.48;6.07;;;;;;;14.86;100.00;99929.81;5227849;28;20158;-71
2023/08/31 06:19:18;;;;;;;9.32;5.45;;;;;;;14.83;100.00;99933.47;5228770;28;20086;-72
2023/08/31 06:21:48;;;;;;;10.88;6.05;;;;;;;14.82;100.00;99945.88;5226721;28;20028;-72
2023/08/31 06:24:18;;;;;;;12.43;6.45;;;;;;;14.84;100.00;99940.41;5231220;28;20494;-72
2023/08/31 06:26:49;;;;;;;10.90;5.90;;;;;;;14.89;100.00;99943.63;5224799;28;20041;-72
2023/08/31 06:29:19;;;;;;;10.85;6.28;;;;;;;14.76;100.00;99947.09;5231266;28;20028;-72
2023/08/31 06:31:49;;;;;;;15.13;6.32;;;;;;;14.89;100.00;99943.63;5227979;28;20049;-71
2023/08/31 06:34:19;;;;;;;13.73;6.05;;;;;;;15.21;100.00;99945.03;5229909;28;20562;-73
2023/08/31 06:36:50;;;;;;;8.20;5.78;;;;;;;15.30;100.00;99939.22;5229808;28;20082;-72
2023/08/31 06:39:20;;;;;;;10.80;5.72;;;;;;;15.07;100.00;99947.72;5231460;28;20020;-72
2023/08/31 06:41:50;;;;;;;9.57;5.95;;;;;;;15.16;100.00;99951.56;5226599;28;20063;-72
2023/08/31 06:44:20;;;;;;;10.57;5.50;;;;;;;15.90;100.00;99948.31;5232543;28;20089;-73
2023/08/31 06:46:51;;;;;;;9.50;4.60;;;;;;;17.45;98.44;99954.84;5227168;28;20486;-73
2023/08/31 06:49:22;;;;;;;7.32;3.92;;;;;;;19.55;87.61;99932.91;5228074;28;20112;-72
2023/08/31 06:51:53;;;;;;;8.43;4.40;;;;;;;19.79;84.53;99939.66;5235119;28;20036;-73
2023/08/31 06:54:24;;;;;;;13.25;4.72;;;;;;;20.33;79.87;99936.84;5234559;28;20099;-73
2023/08/31 06:56:54;;;;;;;12.90;4.83;;;;;;;20.33;80.55;99945.66;5231946;28;20458;-73
2023/08/31 06:59:24;;;;;;;8.95;4.07;;;;;;;21.08;74.61;99941.69;5233115;28;20270;-73
2023/08/31 07:01:55;;;;;;;6.70;3.65;;;;;;;21.75;73.01;99938.16;5229719;28;20037;-73
2023/08/31 07:04:27;;;;;;;8.40;3.65;;;;;;;21.67;72.38;99947.81;5227995;28;20017;-73
2023/08/31 07:06:57;;;;;;;7.90;3.45;;;;;;;21.89;71.37;99950.22;5227343;28;20115;-73
2023/08/31 07:09:27;;;;;;;7.00;3.23;;;;;;;21.55;72.52;99946.25;5231544;28;20135;-73
2023/08/31 07:11:58;;;;;;;6.25;3.50;;;;;;;20.81;74.85;99949.38;5232351;28;20266;-73
2023/08/31 07:14:28;;;;;;;8.25;3.22;;;;;;;21.94;71.29;99950.63;5236629;28;20021;-73
2023/08/31 07:16:58;;;;;;;6.70;3.10;;;;;;;22.41;71.47;99941.75;5233475;28;20020;-73
2023/08/31 07:19:28;;;;;;;7.90;3.83;;;;;;;20.08;75.07;99954.03;5226452;28;20362;-72
2023/08/31 07:21:59;;;;;;;6.50;3.63;;;;;;;18.92;82.51;99960.09;5231585;28;20429;-72
2023/08/31 07:24:30;;;;;;;8.15;3.95;;;;;;;19.90;79.69;99952.88;5225766;28;20406;-73
2023/08/31 07:27:02;;;;;;;8.35;3.42;;;;;;;19.55;79.28;99954.97;5230748;28;20047;-73
2023/08/31 07:29:33;;;;;;;6.88;3.00;;;;;;;19.72;77.77;99946.47;5225467;28;20028;-73
2023/08/31 07:32:03;;;;;;;7.20;3.50;;;;;;;18.81;81.84;99952.19;5228254;28;20021;-73
2023/08/31 07:34:34;;;;;;;6.95;2.83;;;;;;;18.29;83.08;99958.16;5233190;28;20067;-72
2023/08/31 07:37:04;;;;;;;7.82;2.60;;;;;;;18.14;83.69;99954.84;5228946;28;20078;-72
2023/08/31 07:39:34;;;;;;;4.60;2.45;;;;;;;19.24;79.69;99952.28;5226685;28;20024;-72
2023/08/31 07:42:05;;;;;;;6.60;2.70;;;;;;;19.38;78.27;99963.44;5230743;28;20024;-73
2023/08/31 07:44:35;;;;;;;4.95;2.35;;;;;;;19.31;78.54;99956.94;5228051;28;20469;-73
2023/08/31 07:47:05;;;;;;;6.17;2.23;;;;;;;18.80;79.31;99953.13;5228817;28;20382;-73
2023/08/31 07:49:36;;;;;;;5.22;2.10;;;;;;;19.43;78.61;99969.22;5231410;28;20346;-73
2023/08/31 07:52:06;;;;;;;4.75;1.88;;;;;;;19.01;79.67;99964.69;5229831;28;20880;-73
2023/08/31 07:54:37;;;;;;;3.92;1.90;;;;;;;18.94;80.21;99960.81;5227170;28;20025;-72
2023/08/31 07:57:07;;;;;;;5.60;2.13;;;;;;;18.70;82.42;99969.84;5230325;28;20056;-72
2023/08/31 07:59:39;;;;;;;4.50;2.13;;;;;;;17.79;87.38;99969.06;5226492;28;20066;-73
2023/08/31 08:02:09;;;;;;;6.00;2.00;;;;;;;18.28;85.14;99974.97;5225544;28;20025;-72
2023/08/31 08:04:40;;;;;;;4.07;1.90;;;;;;;17.69;86.46;99973.31;5229711;28;20101;-72
2023/08/31 08:07:10;;;;;;;6.45;2.13;;;;;;;17.74;87.95;99972.03;5229023;28;20043;-71
2023/08/31 08:09:40;;;;;;;3.75;2.00;;;;;;;18.15;89.51;99966.28;5226917;28;20031;-72
2023/08/31 08:12:10;;;;;;;3.88;2.00;;;;;;;19.56;81.33;99972.53;5226994;28;20056;-72
2023/08/31 08:14:41;;;;;;;3.67;2.00;;;;;;;19.07;82.80;99974.78;5227453;28;20482;-72
2023/08/31 08:17:11;;;;;;;4.43;1.63;;;;;;;18.34;84.72;99977.19;5224184;28;20036;-72
2023/08/31 08:19:41;;;;;;;5.15;1.95;;;;;;;18.57;82.64;99984.19;5223917;28;20479;-71
2023/08/31 08:22:12;;;;;;;6.50;1.80;;;;;;;19.90;77.74;99981.19;5229085;28;20024;-72
2023/08/31 08:24:42;;;;;;;4.10;1.45;;;;;;;20.11;75.08;99982.94;5226288;28;20479;-73
2023/08/31 08:27:12;;;;;;;4.18;2.00;;;;;;;19.52;78.72;99988.81;5224690;28;20016;-72
2023/08/31 08:29:42;;;;;;;5.10;1.80;;;;;;;19.99;77.87;99986.59;5224451;28;20057;-73
2023/08/31 08:32:13;;;;;;;4.82;1.83;;;;;;;20.31;75.82;99987.41;5224725;28;20205;-72
2023/08/31 08:34:43;;;;;;;3.33;1.60;;;;;;;20.66;75.91;99995.88;5225617;28;20025;-72
2023/08/31 08:37:13;;;;;;;7.70;1.80;;;;;;;20.52;77.64;100000.69;5226821;28;20028;-72
2023/08/31 08:39:48;;;;;;;4.17;2.17;;;;;;;21.07;74.60;99993.16;5227691;28;20279;-72
2023/08/31 08:42:19;;;;;;;3.83;1.60;;;;;;;21.70;74.10;99982.97;5226804;28;20320;-72
2023/08/31 08:44:50;;;;;;;4.10;1.67;;;;;;;21.76;70.72;99985.06;5228829;28;20060;-72
2023/08/31 08:47:20;;;;;;;5.13;1.50;;;;;;;21.70;72.01;99998.09;5229047;28;20029;-72
2023/08/31 08:49:53;;;;;;;4.22;1.40;;;;;;;20.97;72.06;99995.78;5228345;28;20107;-72
2023/08/31 08:52:23;;;;;;;3.25;1.40;;;;;;;20.72;75.50;99998.00;5229864;28;20037;-73
2023/08/31 08:54:54;;;;;;;3.63;1.25;;;;;;;21.37;71.87;99995.78;5226064;28;20047;-72
2023/08/31 08:57:24;;;;;;;2.92;1.50;;;;;;;20.67;74.68;99997.53;5230016;28;20024;-73
2023/08/31 08:59:55;;;;;;;2.75;1.27;;;;;;;20.90;74.89;99996.44;5226093;28;20184;-72
2023/08/31 09:02:25;;;;;;;3.05;1.20;;;;;;;20.28;78.69;100008.91;5228539;28;20025;-73
2023/08/31 09:04:56;;;;;;;2.15;1.10;;;;;;;20.25;76.67;100003.88;5226208;28;20025;-72
2023/08/31 09:07:29;;;;;;;4.32;1.13;;;;;;;20.78;74.71;99995.69;5232418;28;20082;-72
2023/08/31 09:10:00;;;;;;;4.65;1.40;;;;;;;20.30;73.83;100001.66;5229673;28;20083;-73
2023/08/31 09:12:30;;;;;;;2.13;1.15;;;;;;;19.91;78.61;99998.81;5237490;28;20028;-72
2023/08/31 09:15:06;;;;;;;4.13;1.27;;;;;;;20.11;78.07;100004.19;5230786;28;20511;-73
2023/08/31 09:17:39;;;;;;;3.08;1.10;;;;;;;21.33;74.10;99995.19;5235897;28;20371;-72
2023/08/31 09:20:10;;;;;;;3.53;1.25;;;;;;;21.59;71.44;99990.22;5233240;28;20526;-73
2023/08/31 09:22:46;;;;;;;3.13;1.10;;;;;;;21.01;73.55;99985.72;5237470;28;20020;-73
2023/08/31 09:25:17;;;;;;;2.53;0.88;;;;;;;20.14;74.76;99988.00;5237356;28;20021;-72
2023/08/31 09:27:48;;;;;;;2.53;1.10;;;;;;;19.67;75.58;99985.78;5236188;28;20531;-71
2023/08/31 09:30:18;;;;;;;2.45;1.02;;;;;;;18.81;77.03;99996.34;5235308;28;20029;-72
2023/08/31 09:32:53;;;;;;;3.33;1.02;;;;;;;18.36;81.02;100001.72;5232628;28;20031;-71
2023/08/31 09:35:25;;;;;;;2.23;1.03;;;;;;;17.90;81.50;100000.81;5238006;28;20443;-72
2023/08/31 09:37:59;;;;;;;4.05;1.00;;;;;;;17.96;82.59;99989.75;5233006;28;20275;-72
2023/08/31 09:40:29;;;;;;;3.08;1.10;;;;;;;17.81;84.40;99993.56;5233024;28;20028;-72
2023/08/31 09:43:00;;;;;;;4.63;1.00;;;;;;;18.51;81.76;99989.97;5233374;28;20036;-73
2023/08/31 09:45:31;;;;;;;2.60;1.20;;;;;;;18.73;81.35;99991.66;5231769;28;20029;-72
2023/08/31 09:48:04;;;;;;;1.63;0.88;;;;;;;19.24;77.50;99992.03;5233238;28;20266;-73
2023/08/31 09:50:34;;;;;;;2.45;1.10;;;;;;;19.90;79.26;99982.06;5227967;28;20119;-72
2023/08/31 09:53:07;;;;;;;3.78;1.00;;;;;;;19.88;77.61;99976.03;5233877;28;20516;-72
2023/08/31 09:55:39;;;;;;;2.35;0.90;;;;;;;20.90;76.11;99972.53;5235127;28;20024;-73
2023/08/31 09:58:11;;;;;;;3.10;1.10;;;;;;;20.16;74.07;99967.47;5235702;28;20489;-72
2023/08/31 10:00:42;;;;;;;2.47;0.95;;;;;;;19.97;75.23;99967.31;5231380;28;20033;-73
2023/08/31 10:03:15;;;;;;;4.53;0.98;;;;;;;19.85;75.90;99967.50;5231539;28;20614;-73
2023/08/31 10:05:49;;;;;;;2.70;1.08;;;;;;;19.70;77.63;99968.75;5232533;28;20028;-72
2023/08/31 10:08:19;;;;;;;3.60;1.38;;;;;;;19.30;79.68;99963.22;5230083;28;20029;-72
2023/08/31 10:10:49;;;;;;;1.88;0.82;;;;;;;20.04;77.23;99968.53;5228804;28;20023;-72
2023/08/31 10:13:21;;;;;;;2.10;1.13;;;;;;;19.68;76.59;99955.66;5232118;28;20443;-72
2023/08/31 10:15:52;;;;;;;1.42;0.60;;;;;;;20.52;74.83;99956.41;5234205;28;20279;-73
2023/08/31 10:18:24;;;;;;;1.45;0.73;;;;;;;20.31;75.42;99960.03;5234154;28;20036;-72
2023/08/31 10:20:54;;;;;;;4.47;0.90;;;;;;;20.75;75.86;99955.25;5226973;28;20062;-72
2023/08/31 10:23:25;;;;;;;1.88;0.80;;;;;;;20.27;74.08;99970.06;5236497;28;20565;-73
2023/08/31 10:25:55;;;;;;;4.10;0.80;;;;;;;20.12;73.89;99966.06;5232867;28;20427;-71
2023/08/31 10:28:30;;;;;;;2.20;0.90;;;;;;;19.75;75.19;99958.63;5234023;28;20027;-72
2023/08/31 10:31:05;;;;;;;3.17;0.85;;;;;;;19.42;77.25;99967.53;5226322;28;20432;-72
2023/08/31 10:33:42;;;;;;;3.20;0.77;;;;;;;19.11;76.97;99965.63;5233423;28;20035;-72
2023/08/31 10:36:18;;;;;;;2.88;0.90;;;;;;;19.26;78.28;99963.59;5227363;28;20024;-73
2023/08/31 10:38:57;;;;;;;2.25;0.70;;;;;;;19.62;78.01;99965.91;5234292;28;20016;-71
2023/08/31 10:41:35;;;;;;;3.28;1.00;;;;;;;19.89;78.10;99968.91;5231012;28;20103;-72
2023/08/31 10:44:32;;;;;;;4.45;1.30;;;;;;;20.06;75.42;99971.88;5230163;28;20036;-72
2023/08/31 10:47:05;;;;;;;2.78;0.90;;;;;;;19.98;74.22;99968.16;5226926;28;20033;-72
2023/08/31 10:49:37;;;;;;;2.50;0.70;;;;;;;19.48;76.96;99971.50;5225599;28;20924;-73
2023/08/31 10:52:18;;;;;;;2.13;0.90;;;;;;;19.34;76.67;99983.22;5225677;28;20033;-72
2023/08/31 10:54:55;;;;;;;1.73;0.68;;;;;;;19.87;77.28;99977.00;5230323;28;20074;-71
2023/08/31 10:57:31;;;;;;;2.03;0.80;;;;;;;20.30;76.22;99972.47;5227771;28;20068;-72
2023/08/31 11:00:03;;;;;;;2.33;0.70;;;;;;;20.17;75.26;99974.50;5231083;28;20036;-72
2023/08/31 11:02:35;;;;;;;4.03;0.80;;;;;;;20.04;76.31;99972.97;5228894;28;20020;-72
2023/08/31 11:05:11;;;;;;;2.17;0.65;;;;;;;19.37;76.29;99976.81;5226255;28;20024;-72
2023/08/31 11:07:43;;;;;;;2.55;0.60;;;;;;;19.76;75.30;99969.09;5227873;28;20449;-72
2023/08/31 11:10:18;;;;;;;1.38;0.65;;;;;;;19.94;74.87;99969.41;5226068;28;20079;-73
2023/08/31 11:12:50;;;;;;;2.70;0.60;;;;;;;19.91;75.18;99967.81;5231341;28;20025;-72
2023/08/31 11:15:26;;;;;;;4.10;0.77;;;;;;;19.93;74.54;99976.50;5230873;28;20029;-72
2023/08/31 11:17:56;;;;;;;2.00;0.70;;;;;;;20.02;77.93;99970.47;5222211;28;20513;-73
2023/08/31 11:20:30;;;;;;;2.70;0.90;;;;;;;19.63;75.30;99972.88;5237067;28;20225;-73
2023/08/31 11:23:00;;;;;;;2.20;0.70;;;;;;;19.78;75.86;99972.47;5228678;28;20035;-72
2023/08/31 11:25:31;;;;;;;1.67;0.80;;;;;;;19.28;77.72;99973.09;5230185;28;20382;-72
2023/08/31 11:28:06;;;;;;;3.55;1.02;;;;;;;19.44;76.63;99970.88;5230512;28;20548;-73
2023/08/31 11:30:37;;;;;;;1.90;0.80;;;;;;;19.60;76.79;99978.44;5232456;28;20485;-72
2023/08/31 11:33:08;;;;;;;2.05;1.10;;;;;;;19.21;76.78;99966.63;5231300;28;20040;-73
2023/08/31 11:35:41;;;;;;;3.58;1.23;;;;;;;19.26;78.26;99972.38;5231884;28;20028;-72
2023/08/31 11:38:12;;;;;;;3.00;1.00;;;;;;;19.39;78.04;99980.16;5236912;28;20085;-72
2023/08/31 11:40:42;;;;;;;4.15;1.15;;;;;;;18.99;77.68;99982.50;5230751;28;20025;-72
2023/08/31 11:43:14;;;;;;;2.13;1.20;;;;;;;18.83;77.45;99974.09;5231923;28;20021;-73
2023/08/31 11:45:45;;;;;;;2.30;1.10;;;;;;;18.66;78.67;99972.88;5229839;28;20298;-73
2023/08/31 11:48:16;;;;;;;2.40;1.17;;;;;;;19.00;79.27;99970.09;5232604;28;20024;-72